aviador You're here:

EPWR Decoded Metar

WROCLAW in POLAND
Report Time2018-06-24 20:00:00
UTC Time2018-06-24 20:19:23
Flight Rules mvfr MVFR
Wind310° at 09 kt
W.Decomp.*RWY 29: 8.6 kt HW 2.6 kt RCW
W.Rank310° ranks 7
Current wind is above 310° avg. (8.1)
Visibility5000 m
Phenomena:Shower Rain
Clouds:Scattered 006 Hf
Broken CB 012 Hf
Expected CloudBase > 400 ft AGL from Temp-Dew spread
Ceiling1,200 ft
Temp12°C (ISA -2)
Dew Point11°C (94% RH)
AAT9.1°C
QNH1017 hPa
Density Alt177 ft
Elevation397 ft
Report Wrong Elevation
Raw Report
EPWR 242000Z 31009KT 5000 SHRA SCT006 BKN012CB 12/11 Q1017=

Extra information for EPWR:More info

Metar Taf Metar & Taf Last 4 Metars F.Rules Stats Wind Profile Meteogram Temp Stats Airport Information Weather charts Add Link Nearby VenuesMetar ALERT Operation Metar Decoded Social comments